createdAt,value
2018-07-26T00:01:41.749Z,76.44
2018-07-26T00:04:10.049Z,76.95
2018-07-26T00:06:38.292Z,76.74
2018-07-26T00:09:09.321Z,77.21
2018-07-26T00:11:38.669Z,77.34
2018-07-26T00:14:06.949Z,76.97
2018-07-26T00:16:35.188Z,77.02
2018-07-26T00:19:03.507Z,77.55
2018-07-26T00:21:31.768Z,77.33
2018-07-26T00:24:00.029Z,77.37
2018-07-26T00:26:28.268Z,77.91
2018-07-26T00:28:56.557Z,78.67
2018-07-26T00:31:24.865Z,78.11
2018-07-26T00:33:53.105Z,77.82
2018-07-26T00:36:21.383Z,78.30
2018-07-26T00:38:49.642Z,78.16
2018-07-26T00:41:17.969Z,78.12
2018-07-26T00:43:46.197Z,78.64
2018-07-26T00:46:14.474Z,77.94
2018-07-26T00:48:42.760Z,77.93
2018-07-26T00:51:11.097Z,78.27
2018-07-26T00:53:39.337Z,78.05
2018-07-26T00:56:07.680Z,78.35
2018-07-26T00:58:35.917Z,78.57
2018-07-26T01:01:04.201Z,77.38
2018-07-26T01:03:32.448Z,74.19
2018-07-26T01:06:00.720Z,72.28
2018-07-26T01:08:28.960Z,74.01
2018-07-26T01:10:57.265Z,75.40
2018-07-26T01:13:25.545Z,75.19
2018-07-26T01:15:53.825Z,75.33
2018-07-26T01:18:22.229Z,74.97
2018-07-26T01:20:50.713Z,75.60
2018-07-26T01:23:18.957Z,75.55
2018-07-26T01:25:47.204Z,76.01
2018-07-26T01:28:15.505Z,76.30
2018-07-26T01:30:43.939Z,76.44
2018-07-26T01:33:12.253Z,76.17
2018-07-26T01:35:41.532Z,76.52
2018-07-26T01:38:09.864Z,75.96
2018-07-26T01:40:38.272Z,76.67
2018-07-26T01:43:17.925Z,76.95
2018-07-26T01:45:46.177Z,76.92
2018-07-26T01:48:14.453Z,77.10
2018-07-26T01:50:42.705Z,77.85
2018-07-26T01:53:10.973Z,77.10
2018-07-26T01:55:39.225Z,77.26
2018-07-26T01:58:07.500Z,77.22
2018-07-26T02:00:35.765Z,76.20
2018-07-26T02:03:04.053Z,76.56
2018-07-26T02:05:32.353Z,75.62
2018-07-26T02:08:00.639Z,75.82
2018-07-26T02:10:28.893Z,75.98
2018-07-26T02:12:57.177Z,76.16
2018-07-26T02:15:25.439Z,76.16
2018-07-26T02:17:53.697Z,75.75
2018-07-26T02:20:22.017Z,75.19
2018-07-26T02:22:50.233Z,74.82
2018-07-26T02:25:18.505Z,74.92
2018-07-26T02:27:46.756Z,75.56
2018-07-26T02:30:15.057Z,75.12
2018-07-26T02:32:43.306Z,75.20
2018-07-26T02:35:11.569Z,74.45
2018-07-26T02:37:39.809Z,74.49
2018-07-26T02:40:08.081Z,74.79
2018-07-26T02:42:36.346Z,75.21
2018-07-26T02:45:04.674Z,74.56
2018-07-26T02:47:32.950Z,75.15
2018-07-26T02:50:01.243Z,75.04
2018-07-26T02:52:29.498Z,75.89
2018-07-26T02:54:57.777Z,75.95
2018-07-26T02:57:26.028Z,76.18
2018-07-26T02:59:54.304Z,75.70
2018-07-26T03:02:22.560Z,75.98
2018-07-26T03:04:50.854Z,76.37
2018-07-26T03:07:19.559Z,76.41
2018-07-26T03:09:47.828Z,76.55
2018-07-26T03:12:16.101Z,77.04
2018-07-26T03:14:45.562Z,77.53
2018-07-26T03:17:15.246Z,77.10
2018-07-26T03:19:44.561Z,77.27
2018-07-26T03:22:12.870Z,77.45
2018-07-26T03:24:41.136Z,77.56
2018-07-26T03:27:09.533Z,77.71
2018-07-26T03:29:37.816Z,77.10
2018-07-26T03:32:06.361Z,78.76
2018-07-26T03:34:34.636Z,77.42
2018-07-26T03:37:02.973Z,77.43
2018-07-26T03:39:31.254Z,77.84
2018-07-26T03:41:59.551Z,78.42
2018-07-26T03:44:27.822Z,78.18
2018-07-26T03:46:56.116Z,78.21
2018-07-26T03:49:24.394Z,78.24
2018-07-26T03:51:52.805Z,78.56
2018-07-26T03:54:21.101Z,78.62
2018-07-26T03:56:49.394Z,78.80
2018-07-26T03:59:17.653Z,78.91
2018-07-26T04:01:45.996Z,79.36
2018-07-26T04:04:14.265Z,79.32
2018-07-26T04:06:42.581Z,78.51
2018-07-26T04:09:12.872Z,78.96
2018-07-26T04:11:41.859Z,79.08
2018-07-26T04:14:10.245Z,79.21
2018-07-26T04:16:38.976Z,78.81
2018-07-26T04:19:08.038Z,78.59
2018-07-26T04:21:36.373Z,78.62
2018-07-26T04:24:04.679Z,78.43
2018-07-26T04:26:32.953Z,78.46
2018-07-26T04:29:01.313Z,78.54
2018-07-26T04:31:29.649Z,78.77
2018-07-26T04:33:58.054Z,79.05
2018-07-26T04:36:26.304Z,79.35
2018-07-26T04:38:54.591Z,79.99
2018-07-26T04:41:22.880Z,80.49
2018-07-26T04:43:51.156Z,79.43
2018-07-26T04:46:19.405Z,78.98
2018-07-26T04:48:47.772Z,79.08
2018-07-26T04:51:16.070Z,79.18
2018-07-26T04:53:44.369Z,78.83
2018-07-26T04:56:12.644Z,78.35
2018-07-26T04:58:41.420Z,78.30
2018-07-26T05:01:09.701Z,79.55
2018-07-26T05:03:37.960Z,78.96
2018-07-26T05:06:06.252Z,77.80
2018-07-26T05:08:34.524Z,77.28
2018-07-26T05:11:02.846Z,76.42
2018-07-26T05:13:31.104Z,75.41
2018-07-26T05:15:59.405Z,76.38
2018-07-26T05:18:27.697Z,76.22
2018-07-26T05:20:55.965Z,75.40
2018-07-26T05:23:24.221Z,75.01
2018-07-26T05:25:52.513Z,75.21
2018-07-26T05:28:20.873Z,75.33
2018-07-26T05:30:49.165Z,74.74
2018-07-26T05:33:17.428Z,75.09
2018-07-26T05:35:45.728Z,74.51
2018-07-26T05:38:14.000Z,73.88
2018-07-26T05:40:42.317Z,73.68
2018-07-26T05:43:10.645Z,72.78
2018-07-26T05:45:38.885Z,72.58
2018-07-26T05:48:07.189Z,71.62
2018-07-26T05:50:35.485Z,71.44
2018-07-26T05:53:03.897Z,70.60
2018-07-26T05:55:32.199Z,69.84
2018-07-26T05:58:00.526Z,70.01
2018-07-26T06:00:28.785Z,70.82
2018-07-26T06:02:57.089Z,70.69
2018-07-26T06:05:25.369Z,70.07
2018-07-26T06:07:53.697Z,69.69
2018-07-26T06:10:21.979Z,68.97
2018-07-26T06:12:50.265Z,68.92
2018-07-26T06:15:18.544Z,69.44
2018-07-26T06:17:46.852Z,67.75
2018-07-26T06:20:15.125Z,67.40
2018-07-26T06:22:43.430Z,67.63
2018-07-26T06:25:11.693Z,66.42
2018-07-26T06:27:40.037Z,66.00
2018-07-26T06:30:10.921Z,65.98
2018-07-26T06:32:39.244Z,66.72
2018-07-26T06:35:08.297Z,66.65
2018-07-26T06:37:36.701Z,66.03
2018-07-26T06:40:05.600Z,65.34
2018-07-26T06:42:33.895Z,65.24
2018-07-26T06:45:02.171Z,64.72
2018-07-26T06:47:30.485Z,63.72
2018-07-26T06:49:58.769Z,63.69
2018-07-26T06:52:27.149Z,63.82
2018-07-26T06:54:55.433Z,62.37
2018-07-26T06:57:23.737Z,62.03
2018-07-26T06:59:52.212Z,63.08
2018-07-26T07:02:20.481Z,63.46
2018-07-26T07:04:48.850Z,62.73
2018-07-26T07:07:17.116Z,62.38
2018-07-26T07:09:45.653Z,62.50
2018-07-26T07:12:13.921Z,61.99
2018-07-26T07:14:42.205Z,62.30
2018-07-26T07:17:10.673Z,61.30
2018-07-26T07:19:39.005Z,62.20
2018-07-26T07:22:08.317Z,62.15
2018-07-26T07:24:36.656Z,62.19
2018-07-26T07:27:05.004Z,60.30
2018-07-26T07:29:33.310Z,60.24
2018-07-26T07:32:01.670Z,60.27
2018-07-26T07:34:29.955Z,59.60
2018-07-26T07:36:58.221Z,59.01
2018-07-26T07:39:26.511Z,59.11
2018-07-26T07:41:54.777Z,58.46
2018-07-26T07:44:23.060Z,59.10
2018-07-26T07:46:51.309Z,58.62
2018-07-26T07:49:19.733Z,59.06
2018-07-26T07:51:48.094Z,58.74
2018-07-26T07:54:16.361Z,58.55
2018-07-26T07:56:44.653Z,57.44
2018-07-26T07:59:12.944Z,57.93
2018-07-26T08:01:41.228Z,58.46
2018-07-26T08:04:09.504Z,57.45
2018-07-26T08:06:37.810Z,55.95
2018-07-26T08:09:09.028Z,55.94
2018-07-26T08:11:37.319Z,54.99
2018-07-26T08:14:06.204Z,56.27
2018-07-26T08:16:34.517Z,56.06
2018-07-26T08:19:02.808Z,56.59
2018-07-26T08:21:31.093Z,55.41
2018-07-26T08:23:59.401Z,56.78
2018-07-26T08:26:27.769Z,56.36
2018-07-26T08:28:56.116Z,56.07
2018-07-26T08:31:24.397Z,56.37
2018-07-26T08:33:52.676Z,56.02
2018-07-26T08:36:20.979Z,55.92
2018-07-26T08:38:49.256Z,55.83
2018-07-26T08:41:17.544Z,55.32
2018-07-26T08:43:45.801Z,55.35
2018-07-26T08:46:14.093Z,55.80
2018-07-26T08:48:42.408Z,55.46
2018-07-26T08:51:10.669Z,55.46
2018-07-26T08:53:38.945Z,56.57
2018-07-26T08:56:07.207Z,56.24
2018-07-26T08:58:35.594Z,55.12
2018-07-26T09:01:03.962Z,53.84
2018-07-26T09:03:32.241Z,53.14
2018-07-26T09:06:00.493Z,52.88
2018-07-26T09:08:29.213Z,53.12
2018-07-26T09:10:57.831Z,52.64
2018-07-26T09:13:26.096Z,53.45
2018-07-26T09:15:54.388Z,53.30
2018-07-26T09:18:22.670Z,52.75
2018-07-26T09:20:51.036Z,51.41
2018-07-26T09:23:19.484Z,52.46
2018-07-26T09:25:47.761Z,51.55
2018-07-26T09:28:16.053Z,51.72
2018-07-26T09:30:44.349Z,51.04
2018-07-26T09:33:12.713Z,51.18
2018-07-26T09:35:40.969Z,51.44
2018-07-26T09:38:09.224Z,51.20
2018-07-26T09:40:37.541Z,50.98
2018-07-26T09:43:05.900Z,51.83
2018-07-26T09:45:34.205Z,51.12
2018-07-26T09:48:02.472Z,51.73
2018-07-26T09:50:30.765Z,52.11
2018-07-26T09:52:59.053Z,51.84
2018-07-26T09:55:27.335Z,51.06
2018-07-26T09:57:55.834Z,50.18
2018-07-26T10:00:29.408Z,50.36
2018-07-26T10:02:57.776Z,50.50
2018-07-26T10:05:26.060Z,51.37
2018-07-26T10:07:54.313Z,51.63
2018-07-26T10:10:22.616Z,50.69
2018-07-26T10:12:51.023Z,51.11
2018-07-26T10:15:19.321Z,51.33
2018-07-26T10:17:47.659Z,50.72
2018-07-26T10:20:15.980Z,51.40
2018-07-26T10:22:44.402Z,50.30
2018-07-26T10:25:12.713Z,49.13
2018-07-26T10:27:41.064Z,48.19
2018-07-26T10:30:09.765Z,47.85
2018-07-26T10:32:38.084Z,47.60
2018-07-26T10:35:06.390Z,47.70
2018-07-26T10:37:34.685Z,47.46
2018-07-26T10:40:02.968Z,47.29
2018-07-26T10:42:31.363Z,47.34
2018-07-26T10:44:59.618Z,47.45
2018-07-26T10:47:27.923Z,47.18
2018-07-26T10:49:56.275Z,46.87
2018-07-26T10:52:24.694Z,48.31
2018-07-26T10:54:52.957Z,47.97
2018-07-26T10:57:21.317Z,48.94
2018-07-26T10:59:49.624Z,49.53
2018-07-26T11:02:17.912Z,49.98
2018-07-26T11:04:46.168Z,49.29
2018-07-26T11:07:14.445Z,50.08
2018-07-26T11:09:42.767Z,50.27
2018-07-26T11:12:11.041Z,51.53
2018-07-26T11:14:39.296Z,51.58
2018-07-26T11:17:07.588Z,50.76
2018-07-26T11:19:35.845Z,51.67
2018-07-26T11:22:04.181Z,51.46
2018-07-26T11:24:32.462Z,51.84
2018-07-26T11:27:00.760Z,51.47
2018-07-26T11:29:29.166Z,51.56
2018-07-26T11:31:57.454Z,51.96
2018-07-26T11:34:25.713Z,52.66
2018-07-26T11:36:54.007Z,50.93
2018-07-26T11:39:22.284Z,52.36
2018-07-26T11:41:50.645Z,52.97
2018-07-26T11:44:18.977Z,52.59
2018-07-26T11:46:47.269Z,51.85
2018-07-26T11:49:15.573Z,52.76
2018-07-26T11:51:43.828Z,53.64
2018-07-26T11:54:12.182Z,54.18
2018-07-26T11:56:40.517Z,53.12
2018-07-26T11:59:08.799Z,53.79
2018-07-26T12:01:37.075Z,52.71
2018-07-26T12:04:05.345Z,52.24
2018-07-26T12:06:33.596Z,49.75
2018-07-26T12:09:01.894Z,47.35
2018-07-26T12:11:30.145Z,46.34
2018-07-26T12:13:58.416Z,46.75
2018-07-26T12:16:26.754Z,45.53
2018-07-26T12:18:55.013Z,45.57
2018-07-26T12:21:23.293Z,44.93
2018-07-26T12:23:51.560Z,44.83
2018-07-26T12:26:19.833Z,45.68
2018-07-26T12:28:48.085Z,45.55
2018-07-26T12:31:16.400Z,45.44
2018-07-26T12:33:44.661Z,45.16
2018-07-26T12:36:13.819Z,45.40
2018-07-26T12:38:42.083Z,45.20
2018-07-26T12:41:10.499Z,44.84
2018-07-26T12:43:39.073Z,44.47
2018-07-26T12:46:07.326Z,43.66
2018-07-26T12:48:35.637Z,41.73
2018-07-26T12:51:03.965Z,41.99
2018-07-26T12:53:32.257Z,41.88
2018-07-26T12:56:00.565Z,40.61
2018-07-26T12:58:28.809Z,40.69
2018-07-26T13:00:57.094Z,39.85
2018-07-26T13:03:25.402Z,39.12
2018-07-26T13:05:53.746Z,39.77
2018-07-26T13:08:22.021Z,39.37
2018-07-26T13:10:50.357Z,37.72
2018-07-26T13:13:18.655Z,37.67
2018-07-26T13:15:46.965Z,36.78
2018-07-26T13:18:15.381Z,36.50
2018-07-26T13:20:43.708Z,36.94
2018-07-26T13:23:11.976Z,37.16
2018-07-26T13:25:40.272Z,36.91
2018-07-26T13:28:08.597Z,36.30
2018-07-26T13:30:36.923Z,36.95
2018-07-26T13:33:05.253Z,37.64
2018-07-26T13:35:33.534Z,38.39
2018-07-26T13:38:01.912Z,36.72
2018-07-26T13:40:31.137Z,36.84
2018-07-26T13:42:59.624Z,36.82
2018-07-26T13:45:27.971Z,35.78
2018-07-26T13:47:56.333Z,35.00
2018-07-26T13:50:24.611Z,34.23
2018-07-26T13:52:52.953Z,35.19
2018-07-26T13:55:21.221Z,35.92
2018-07-26T13:57:49.537Z,34.81
2018-07-26T14:00:17.817Z,34.57
2018-07-26T14:02:46.103Z,34.62
2018-07-26T14:05:14.407Z,34.06
2018-07-26T14:07:42.703Z,33.67
2018-07-26T14:10:11.030Z,31.16
2018-07-26T14:12:39.734Z,27.78
2018-07-26T14:15:09.866Z,28.26
2018-07-26T14:17:38.551Z,28.30
2018-07-26T14:20:08.529Z,29.42
2018-07-26T14:22:36.814Z,23.75
2018-07-26T14:25:05.944Z,18.94
2018-07-26T14:27:35.075Z,18.60
2018-07-26T14:30:03.537Z,19.23
2018-07-26T14:32:31.836Z,17.71
2018-07-26T14:35:00.626Z,18.40
2018-07-26T14:37:28.892Z,19.68
2018-07-26T14:39:57.209Z,18.82
2018-07-26T14:42:25.513Z,17.52
2018-07-26T14:44:53.863Z,19.32
2018-07-26T14:47:22.129Z,21.14
2018-07-26T14:49:50.420Z,23.34
2018-07-26T14:52:18.712Z,22.29
2018-07-26T14:54:47.046Z,21.98
2018-07-26T14:57:15.318Z,20.14
2018-07-26T14:59:43.580Z,17.21
2018-07-26T15:02:12.405Z,15.24
2018-07-26T15:04:40.693Z,13.94
2018-07-26T15:07:09.069Z,15.52
2018-07-26T15:09:37.324Z,18.19
2018-07-26T15:12:05.682Z,19.10
2018-07-26T15:14:33.948Z,20.48
2018-07-26T15:17:02.241Z,23.64
2018-07-26T15:19:30.516Z,24.34
2018-07-26T15:21:58.805Z,21.38
2018-07-26T15:24:28.292Z,19.01
2018-07-26T15:26:56.585Z,17.75
2018-07-26T15:29:24.949Z,14.64
2018-07-26T15:31:53.260Z,14.49
2018-07-26T15:34:21.513Z,14.53
2018-07-26T15:36:49.801Z,15.09
2018-07-26T15:39:18.053Z,13.27
2018-07-26T15:41:46.385Z,14.34
2018-07-26T15:44:16.085Z,14.44
2018-07-26T15:46:45.489Z,15.10
2018-07-26T15:49:13.773Z,14.10
2018-07-26T15:51:43.192Z,14.17
2018-07-26T15:54:12.549Z,17.03
2018-07-26T15:56:40.873Z,15.98
2018-07-26T15:59:09.170Z,15.06
2018-07-26T16:01:37.497Z,15.15
2018-07-26T16:04:07.002Z,15.49
2018-07-26T16:06:35.269Z,15.51
2018-07-26T16:09:03.977Z,14.84
2018-07-26T16:11:32.249Z,15.21
2018-07-26T16:14:00.694Z,14.62
2018-07-26T16:16:28.961Z,14.67
2018-07-26T16:18:57.271Z,14.82
2018-07-26T16:21:25.552Z,14.99
2018-07-26T16:23:53.913Z,15.49
2018-07-26T16:26:22.159Z,16.83
2018-07-26T16:28:51.611Z,16.29
2018-07-26T16:31:19.901Z,15.79
2018-07-26T16:33:48.212Z,15.54
2018-07-26T16:36:16.725Z,16.52
2018-07-26T16:38:45.050Z,15.97
2018-07-26T16:41:13.320Z,15.56
2018-07-26T16:43:41.615Z,15.08
2018-07-26T16:46:09.949Z,15.39
2018-07-26T16:48:39.265Z,15.56
2018-07-26T16:51:07.577Z,15.03
2018-07-26T16:53:39.021Z,15.46
2018-07-26T16:56:08.532Z,15.24
2018-07-26T16:58:36.975Z,15.32
2018-07-26T17:01:08.845Z,16.22
2018-07-26T17:03:38.210Z,15.93
2018-07-26T17:06:06.541Z,16.29
2018-07-26T17:08:34.830Z,16.38
2018-07-26T17:11:06.014Z,16.67
2018-07-26T17:13:34.492Z,17.28
2018-07-26T17:16:06.213Z,17.50
2018-07-26T17:18:34.530Z,18.02
2018-07-26T17:21:04.961Z,17.98
2018-07-26T17:23:33.501Z,19.14
2018-07-26T17:26:01.925Z,18.83
2018-07-26T17:28:30.248Z,20.66
2018-07-26T17:30:58.607Z,23.79
2018-07-26T17:33:28.878Z,25.95
2018-07-26T17:35:58.183Z,27.68
2018-07-26T17:38:26.451Z,29.04
2018-07-26T17:40:54.973Z,30.83
2018-07-26T17:43:23.630Z,30.82
2018-07-26T17:45:53.053Z,30.77
2018-07-26T17:48:22.465Z,32.70
2018-07-26T17:50:51.882Z,32.52
2018-07-26T17:53:20.191Z,33.44
2018-07-26T17:55:49.477Z,33.36
2018-07-26T17:58:17.782Z,33.72
2018-07-26T18:00:46.069Z,33.63
2018-07-26T18:03:14.388Z,33.74
2018-07-26T18:05:42.655Z,33.86
2018-07-26T18:08:10.952Z,34.75
2018-07-26T18:10:39.981Z,34.93
2018-07-26T18:13:08.290Z,35.68
2018-07-26T18:15:36.590Z,35.06
2018-07-26T18:18:04.926Z,35.74
2018-07-26T18:20:33.456Z,36.39
2018-07-26T18:23:01.774Z,36.14
2018-07-26T18:25:30.130Z,36.71
2018-07-26T18:27:58.406Z,36.98
2018-07-26T18:30:26.701Z,37.19
2018-07-26T18:32:55.101Z,37.06
2018-07-26T18:35:23.373Z,38.60
2018-07-26T18:37:51.881Z,37.59
2018-07-26T18:40:20.170Z,38.17
2018-07-26T18:42:48.489Z,38.47
2018-07-26T18:45:16.829Z,38.79
2018-07-26T18:47:45.169Z,39.19
2018-07-26T18:50:13.445Z,39.70
2018-07-26T18:52:41.726Z,39.53
2018-07-26T18:55:10.602Z,40.11
2018-07-26T18:57:39.568Z,39.75
2018-07-26T19:00:10.026Z,40.24
2018-07-26T19:02:38.281Z,40.88
2018-07-26T19:05:07.500Z,41.36
2018-07-26T19:07:37.161Z,39.78
2018-07-26T19:10:07.529Z,40.68
2018-07-26T19:12:36.801Z,41.25
2018-07-26T19:15:06.904Z,41.13
2018-07-26T19:17:35.305Z,42.03
2018-07-26T19:20:03.625Z,42.78
2018-07-26T19:22:31.893Z,42.19
2018-07-26T19:25:00.181Z,43.38
2018-07-26T19:27:28.442Z,43.04
2018-07-26T19:29:56.809Z,43.76
2018-07-26T19:32:25.072Z,43.82
2018-07-26T19:34:53.427Z,44.47
2018-07-26T19:37:21.706Z,44.82
2018-07-26T19:39:53.105Z,45.25
2018-07-26T19:42:21.370Z,45.17
2018-07-26T19:44:49.713Z,45.05
2018-07-26T19:47:17.986Z,45.55
2018-07-26T19:49:46.281Z,45.46
2018-07-26T19:52:14.649Z,45.58
2018-07-26T19:54:42.974Z,45.41
2018-07-26T19:57:11.737Z,45.27
2018-07-26T19:59:40.013Z,46.00
2018-07-26T20:02:08.475Z,46.08
2018-07-26T20:04:36.976Z,46.37
2018-07-26T20:07:05.273Z,47.16
2018-07-26T20:09:33.673Z,46.22
2018-07-26T20:12:02.230Z,47.05
2018-07-26T20:14:30.510Z,47.14
2018-07-26T20:16:58.868Z,47.42
2018-07-26T20:19:27.136Z,47.61
2018-07-26T20:21:55.409Z,47.59
2018-07-26T20:24:23.733Z,49.01
2018-07-26T20:26:52.104Z,48.32
2018-07-26T20:29:20.338Z,49.00
2018-07-26T20:31:48.688Z,49.35
2018-07-26T20:34:16.974Z,48.69
2018-07-26T20:36:45.254Z,49.32
2018-07-26T20:39:15.552Z,50.09
2018-07-26T20:41:44.901Z,49.82
2018-07-26T20:44:13.242Z,49.88
2018-07-26T20:46:41.498Z,49.67
2018-07-26T20:49:10.053Z,50.70
2018-07-26T20:51:38.504Z,50.28
2018-07-26T20:54:06.977Z,51.02
2018-07-26T20:56:35.502Z,50.99
2018-07-26T20:59:03.852Z,51.31
2018-07-26T21:01:32.141Z,50.66
2018-07-26T21:04:00.474Z,51.18
2018-07-26T21:06:28.749Z,51.62
2018-07-26T21:08:57.113Z,51.53
2018-07-26T21:11:25.433Z,51.56
2018-07-26T21:13:53.755Z,51.78
2018-07-26T21:16:22.082Z,52.85
2018-07-26T21:18:50.405Z,52.33
2018-07-26T21:21:18.716Z,52.53
2018-07-26T21:23:47.198Z,52.98
2018-07-26T21:26:15.510Z,53.13
2018-07-26T21:28:43.893Z,53.00
2018-07-26T21:31:12.275Z,53.13
2018-07-26T21:33:40.570Z,53.62
2018-07-26T21:36:08.860Z,53.53
2018-07-26T21:38:37.241Z,54.06
2018-07-26T21:41:05.541Z,53.82
2018-07-26T21:43:33.828Z,54.09
2018-07-26T21:46:02.137Z,53.75
2018-07-26T21:48:31.492Z,53.88
2018-07-26T21:50:59.789Z,54.09
2018-07-26T21:53:28.138Z,54.76
2018-07-26T21:55:56.457Z,54.38
2018-07-26T21:58:24.748Z,54.84
2018-07-26T22:00:57.517Z,54.82
2018-07-26T22:03:26.890Z,54.66
2018-07-26T22:05:55.190Z,54.35
2018-07-26T22:08:23.525Z,55.08
2018-07-26T22:10:51.845Z,54.72
2018-07-26T22:13:20.777Z,55.50
2018-07-26T22:15:50.246Z,55.35
2018-07-26T22:18:18.542Z,55.18
2018-07-26T22:20:46.865Z,56.02
2018-07-26T22:23:15.241Z,55.35
2018-07-26T22:25:48.517Z,55.73
2018-07-26T22:28:17.328Z,55.63
2018-07-26T22:30:46.089Z,56.13
2018-07-26T22:33:14.477Z,56.83
2018-07-26T22:35:43.486Z,57.63
2018-07-26T22:38:12.614Z,58.06
2018-07-26T22:40:41.917Z,57.54
2018-07-26T22:43:10.233Z,57.76
2018-07-26T22:45:39.049Z,58.65
2018-07-26T22:48:07.705Z,58.50
2018-07-26T22:50:36.124Z,58.29
2018-07-26T22:53:04.429Z,58.56
2018-07-26T22:55:32.729Z,58.92
2018-07-26T22:58:01.013Z,59.05
2018-07-26T23:00:29.533Z,58.82
2018-07-26T23:02:57.881Z,58.80
2018-07-26T23:05:26.157Z,59.17
2018-07-26T23:07:54.509Z,59.40
2018-07-26T23:10:22.773Z,59.87
2018-07-26T23:12:51.074Z,59.74
2018-07-26T23:15:19.334Z,60.57
2018-07-26T23:17:47.645Z,61.07
2018-07-26T23:20:15.966Z,61.53
2018-07-26T23:22:44.489Z,60.96
2018-07-26T23:25:12.867Z,61.95
2018-07-26T23:27:41.143Z,62.29
2018-07-26T23:30:12.694Z,61.76
2018-07-26T23:32:41.242Z,62.55
2018-07-26T23:35:09.917Z,62.19
2018-07-26T23:37:38.173Z,62.80
2018-07-26T23:40:08.259Z,62.18
2018-07-26T23:42:36.553Z,62.87
2018-07-26T23:45:05.378Z,62.93
2018-07-26T23:47:33.665Z,63.37
2018-07-26T23:50:01.963Z,63.40
2018-07-26T23:52:30.791Z,63.22
2018-07-26T23:54:59.313Z,63.16
2018-07-26T23:57:27.597Z,63.46
2018-07-26T23:59:55.878Z,63.08
